Terminal Aerodrome Forecast
Issued by NWS

Home | Current Version | Previous Version | Graphics & Text | Print | Product List | Glossary On
Versions: 1 2 3 4 5 6 7 8 9 10 11 12 13 14 15 16 17 18 19 20 21 22 23
671
FTUS42 KMHX 291417 AAA
TAFOAJ
TAF AMD
KOAJ 291417Z 2914/3012 35003KT P6SM BKN006 OVC012
     FM291500 02006KT P6SM SCT015 BKN035
     FM291700 02008KT P6SM VCSH SCT025 BKN040
     FM292200 05006KT P6SM SCT025 BKN050
     FM300600 VRB04KT P6SM SCT007 BKN025
      AMD LTD TO CLD VIS AND WIND=

USA.gov is the U.S. government's official web portal to all federal, state and local government web resources and services.